sensor_id;sensor_type;location;lat;lon;timestamp;temperature;humidity
18073;DHT22;9161;47.348;9.648;2022-10-31T00:01:13;8.50;99.90
18073;DHT22;9161;47.348;9.648;2022-10-31T00:05:57;8.40;99.90
18073;DHT22;9161;47.348;9.648;2022-10-31T00:10:43;8.20;99.90
18073;DHT22;9161;47.348;9.648;2022-10-31T00:15:27;8.10;99.90
18073;DHT22;9161;47.348;9.648;2022-10-31T00:20:11;8.20;99.90
18073;DHT22;9161;47.348;9.648;2022-10-31T00:24:54;8.30;99.90
18073;DHT22;9161;47.348;9.648;2022-10-31T00:29:39;8.20;99.90
18073;DHT22;9161;47.348;9.648;2022-10-31T00:34:22;8.00;99.90
18073;DHT22;9161;47.348;9.648;2022-10-31T00:39:06;7.90;99.90
18073;DHT22;9161;47.348;9.648;2022-10-31T00:43:49;7.90;99.90
18073;DHT22;9161;47.348;9.648;2022-10-31T00:48:34;7.90;99.90
18073;DHT22;9161;47.348;9.648;2022-10-31T00:53:18;7.80;99.90
18073;DHT22;9161;47.348;9.648;2022-10-31T00:58:02;7.80;99.90
18073;DHT22;9161;47.348;9.648;2022-10-31T01:02:46;7.70;99.90
18073;DHT22;9161;47.348;9.648;2022-10-31T01:07:31;7.60;99.90
18073;DHT22;9161;47.348;9.648;2022-10-31T01:12:14;7.60;99.90
18073;DHT22;9161;47.348;9.648;2022-10-31T01:16:58;7.80;99.90
18073;DHT22;9161;47.348;9.648;2022-10-31T01:21:42;7.70;99.90
18073;DHT22;9161;47.348;9.648;2022-10-31T01:26:28;7.60;99.90
18073;DHT22;9161;47.348;9.648;2022-10-31T01:31:12;7.50;99.90
18073;DHT22;9161;47.348;9.648;2022-10-31T01:35:56;7.40;99.90
18073;DHT22;9161;47.348;9.648;2022-10-31T01:40:40;7.40;99.90
18073;DHT22;9161;47.348;9.648;2022-10-31T01:45:25;7.50;99.90
18073;DHT22;9161;47.348;9.648;2022-10-31T01:50:23;7.40;99.90
18073;DHT22;9161;47.348;9.648;2022-10-31T01:55:12;7.30;99.90
18073;DHT22;9161;47.348;9.648;2022-10-31T01:59:59;7.30;99.90
18073;DHT22;9161;47.348;9.648;2022-10-31T02:04:46;7.30;99.90
18073;DHT22;9161;47.348;9.648;2022-10-31T02:09:31;7.20;99.90
18073;DHT22;9161;47.348;9.648;2022-10-31T02:14:16;7.10;99.90
18073;DHT22;9161;47.348;9.648;2022-10-31T02:18:59;7.10;99.90
18073;DHT22;9161;47.348;9.648;2022-10-31T02:24:19;7.20;99.90
18073;DHT22;9161;47.348;9.648;2022-10-31T02:34:18;7.20;99.90
18073;DHT22;9161;47.348;9.648;2022-10-31T02:39:11;7.10;99.90
18073;DHT22;9161;47.348;9.648;2022-10-31T02:44:02;7.00;99.90
18073;DHT22;9161;47.348;9.648;2022-10-31T02:48:48;6.90;99.90
18073;DHT22;9161;47.348;9.648;2022-10-31T02:53:36;6.90;99.90
18073;DHT22;9161;47.348;9.648;2022-10-31T02:58:22;7.10;99.90
18073;DHT22;9161;47.348;9.648;2022-10-31T03:03:12;7.10;99.90
18073;DHT22;9161;47.348;9.648;2022-10-31T03:08:01;6.90;99.90
18073;DHT22;9161;47.348;9.648;2022-10-31T03:12:57;6.90;99.90
18073;DHT22;9161;47.348;9.648;2022-10-31T03:17:53;6.80;99.90
18073;DHT22;9161;47.348;9.648;2022-10-31T03:22:40;6.80;99.90
18073;DHT22;9161;47.348;9.648;2022-10-31T03:27:27;6.60;99.90
18073;DHT22;9161;47.348;9.648;2022-10-31T03:32:16;6.60;99.90
18073;DHT22;9161;47.348;9.648;2022-10-31T03:37:04;6.60;99.90
18073;DHT22;9161;47.348;9.648;2022-10-31T03:41:51;6.70;99.90
18073;DHT22;9161;47.348;9.648;2022-10-31T03:46:36;6.70;99.90
18073;DHT22;9161;47.348;9.648;2022-10-31T03:51:24;6.60;99.90
18073;DHT22;9161;47.348;9.648;2022-10-31T03:56:15;6.50;99.90
18073;DHT22;9161;47.348;9.648;2022-10-31T04:01:01;6.60;99.90
18073;DHT22;9161;47.348;9.648;2022-10-31T04:05:47;6.70;99.90
18073;DHT22;9161;47.348;9.648;2022-10-31T04:10:34;6.80;99.90
18073;DHT22;9161;47.348;9.648;2022-10-31T04:15:22;6.90;99.90
18073;DHT22;9161;47.348;9.648;2022-10-31T04:20:07;7.20;99.90
18073;DHT22;9161;47.348;9.648;2022-10-31T04:24:51;7.20;99.90
18073;DHT22;9161;47.348;9.648;2022-10-31T04:29:36;7.20;99.90
18073;DHT22;9161;47.348;9.648;2022-10-31T04:34:19;7.20;99.90
18073;DHT22;9161;47.348;9.648;2022-10-31T04:39:03;7.20;99.90
18073;DHT22;9161;47.348;9.648;2022-10-31T04:43:46;7.10;99.90
18073;DHT22;9161;47.348;9.648;2022-10-31T04:48:31;7.10;99.90
18073;DHT22;9161;47.348;9.648;2022-10-31T04:53:15;7.00;99.90
18073;DHT22;9161;47.348;9.648;2022-10-31T04:57:59;6.90;99.90
18073;DHT22;9161;47.348;9.648;2022-10-31T05:02:44;6.70;99.90
18073;DHT22;9161;47.348;9.648;2022-10-31T05:07:29;6.60;99.90
18073;DHT22;9161;47.348;9.648;2022-10-31T05:12:12;6.80;99.90
18073;DHT22;9161;47.348;9.648;2022-10-31T05:16:56;6.90;99.90
18073;DHT22;9161;47.348;9.648;2022-10-31T05:21:39;6.80;99.90
18073;DHT22;9161;47.348;9.648;2022-10-31T05:26:24;6.70;99.90
18073;DHT22;9161;47.348;9.648;2022-10-31T05:31:08;6.70;99.90
18073;DHT22;9161;47.348;9.648;2022-10-31T05:35:51;6.80;99.90
18073;DHT22;9161;47.348;9.648;2022-10-31T05:40:34;6.70;99.90
18073;DHT22;9161;47.348;9.648;2022-10-31T05:45:20;6.60;99.90
18073;DHT22;9161;47.348;9.648;2022-10-31T05:50:05;6.30;99.90
18073;DHT22;9161;47.348;9.648;2022-10-31T05:54:48;6.30;99.90
18073;DHT22;9161;47.348;9.648;2022-10-31T05:59:32;6.30;99.90
18073;DHT22;9161;47.348;9.648;2022-10-31T06:04:17;6.30;99.90
18073;DHT22;9161;47.348;9.648;2022-10-31T06:09:00;6.10;99.90
18073;DHT22;9161;47.348;9.648;2022-10-31T06:13:44;6.10;99.90
18073;DHT22;9161;47.348;9.648;2022-10-31T06:18:28;6.10;99.90
18073;DHT22;9161;47.348;9.648;2022-10-31T06:23:12;6.30;99.90
18073;DHT22;9161;47.348;9.648;2022-10-31T06:27:57;6.30;99.90
18073;DHT22;9161;47.348;9.648;2022-10-31T06:32:41;6.40;99.90
18073;DHT22;9161;47.348;9.648;2022-10-31T06:37:32;6.50;99.90
18073;DHT22;9161;47.348;9.648;2022-10-31T06:42:20;6.70;99.90
18073;DHT22;9161;47.348;9.648;2022-10-31T06:47:04;6.70;99.90
18073;DHT22;9161;47.348;9.648;2022-10-31T06:51:48;6.70;99.90
18073;DHT22;9161;47.348;9.648;2022-10-31T06:56:32;6.70;99.90
18073;DHT22;9161;47.348;9.648;2022-10-31T07:01:17;6.50;99.90
18073;DHT22;9161;47.348;9.648;2022-10-31T07:06:01;6.70;99.90
18073;DHT22;9161;47.348;9.648;2022-10-31T07:10:51;6.70;99.90
18073;DHT22;9161;47.348;9.648;2022-10-31T07:15:36;6.80;99.90
18073;DHT22;9161;47.348;9.648;2022-10-31T07:20:23;7.00;99.90
18073;DHT22;9161;47.348;9.648;2022-10-31T07:25:07;7.00;99.90
18073;DHT22;9161;47.348;9.648;2022-10-31T07:29:51;7.20;99.90
18073;DHT22;9161;47.348;9.648;2022-10-31T07:34:35;7.70;99.90
18073;DHT22;9161;47.348;9.648;2022-10-31T07:39:20;8.10;99.90
18073;DHT22;9161;47.348;9.648;2022-10-31T07:44:03;8.60;99.90
18073;DHT22;9161;47.348;9.648;2022-10-31T07:48:50;8.80;99.90
18073;DHT22;9161;47.348;9.648;2022-10-31T07:53:33;9.00;99.90
18073;DHT22;9161;47.348;9.648;2022-10-31T07:58:18;9.10;99.90
18073;DHT22;9161;47.348;9.648;2022-10-31T08:03:04;9.20;99.90
18073;DHT22;9161;47.348;9.648;2022-10-31T08:07:48;9.00;99.90
18073;DHT22;9161;47.348;9.648;2022-10-31T08:12:31;9.00;99.90
18073;DHT22;9161;47.348;9.648;2022-10-31T08:17:16;9.00;99.90
18073;DHT22;9161;47.348;9.648;2022-10-31T08:22:00;9.20;99.90
18073;DHT22;9161;47.348;9.648;2022-10-31T08:26:44;9.40;99.90
18073;DHT22;9161;47.348;9.648;2022-10-31T08:31:27;9.60;99.90
18073;DHT22;9161;47.348;9.648;2022-10-31T08:36:17;9.80;99.90
18073;DHT22;9161;47.348;9.648;2022-10-31T08:41:00;9.90;99.90
18073;DHT22;9161;47.348;9.648;2022-10-31T08:45:47;9.90;99.90
18073;DHT22;9161;47.348;9.648;2022-10-31T08:50:32;9.90;99.90
18073;DHT22;9161;47.348;9.648;2022-10-31T08:55:17;9.90;99.90
18073;DHT22;9161;47.348;9.648;2022-10-31T09:00:01;10.10;99.90
18073;DHT22;9161;47.348;9.648;2022-10-31T09:04:45;10.60;99.90
18073;DHT22;9161;47.348;9.648;2022-10-31T09:09:29;11.10;99.90
18073;DHT22;9161;47.348;9.648;2022-10-31T09:14:14;11.30;99.90
18073;DHT22;9161;47.348;9.648;2022-10-31T09:18:57;11.50;99.90
18073;DHT22;9161;47.348;9.648;2022-10-31T09:23:41;11.90;99.90
18073;DHT22;9161;47.348;9.648;2022-10-31T09:28:24;12.40;99.90
18073;DHT22;9161;47.348;9.648;2022-10-31T09:33:11;12.70;99.90
18073;DHT22;9161;47.348;9.648;2022-10-31T09:37:55;13.30;99.90
18073;DHT22;9161;47.348;9.648;2022-10-31T09:42:49;13.80;99.90
18073;DHT22;9161;47.348;9.648;2022-10-31T09:47:46;14.20;99.90
18073;DHT22;9161;47.348;9.648;2022-10-31T09:52:34;14.20;99.90
18073;DHT22;9161;47.348;9.648;2022-10-31T09:57:24;14.10;99.90
18073;DHT22;9161;47.348;9.648;2022-10-31T10:02:15;14.50;99.90
18073;DHT22;9161;47.348;9.648;2022-10-31T10:07:02;14.40;99.90
18073;DHT22;9161;47.348;9.648;2022-10-31T10:11:58;14.00;99.90
18073;DHT22;9161;47.348;9.648;2022-10-31T10:17:02;13.90;99.90
18073;DHT22;9161;47.348;9.648;2022-10-31T10:21:55;13.90;99.90
18073;DHT22;9161;47.348;9.648;2022-10-31T10:26:44;13.80;99.90
18073;DHT22;9161;47.348;9.648;2022-10-31T10:31:35;14.30;99.90
18073;DHT22;9161;47.348;9.648;2022-10-31T10:36:22;15.00;99.90
18073;DHT22;9161;47.348;9.648;2022-10-31T10:41:14;15.80;99.90
18073;DHT22;9161;47.348;9.648;2022-10-31T10:46:16;16.40;99.90
18073;DHT22;9161;47.348;9.648;2022-10-31T10:51:22;16.50;99.90
18073;DHT22;9161;47.348;9.648;2022-10-31T10:56:37;15.90;99.90
18073;DHT22;9161;47.348;9.648;2022-10-31T11:01:23;15.60;99.90
18073;DHT22;9161;47.348;9.648;2022-10-31T11:06:17;16.20;99.90
18073;DHT22;9161;47.348;9.648;2022-10-31T11:11:23;17.20;99.90
18073;DHT22;9161;47.348;9.648;2022-10-31T11:16:10;18.50;99.90
18073;DHT22;9161;47.348;9.648;2022-10-31T11:20:56;18.80;99.90
18073;DHT22;9161;47.348;9.648;2022-10-31T11:25:48;18.40;99.90
18073;DHT22;9161;47.348;9.648;2022-10-31T11:30:44;18.10;99.90
18073;DHT22;9161;47.348;9.648;2022-10-31T11:35:29;16.30;99.90
18073;DHT22;9161;47.348;9.648;2022-10-31T11:40:18;15.60;99.90
18073;DHT22;9161;47.348;9.648;2022-10-31T11:45:06;15.10;99.90
18073;DHT22;9161;47.348;9.648;2022-10-31T11:49:57;14.80;99.90
18073;DHT22;9161;47.348;9.648;2022-10-31T11:54:47;14.40;99.90
18073;DHT22;9161;47.348;9.648;2022-10-31T11:59:32;14.40;99.90
18073;DHT22;9161;47.348;9.648;2022-10-31T12:04:17;14.70;99.90
18073;DHT22;9161;47.348;9.648;2022-10-31T12:09:10;15.10;99.90
18073;DHT22;9161;47.348;9.648;2022-10-31T12:14:14;15.10;99.90
18073;DHT22;9161;47.348;9.648;2022-10-31T12:19:02;15.60;99.90
18073;DHT22;9161;47.348;9.648;2022-10-31T12:23:59;16.00;99.90
18073;DHT22;9161;47.348;9.648;2022-10-31T12:28:58;15.90;99.90
18073;DHT22;9161;47.348;9.648;2022-10-31T12:33:51;15.90;99.90
18073;DHT22;9161;47.348;9.648;2022-10-31T12:38:46;16.00;99.90
18073;DHT22;9161;47.348;9.648;2022-10-31T12:43:39;16.30;99.90
18073;DHT22;9161;47.348;9.648;2022-10-31T12:48:46;16.60;99.90
18073;DHT22;9161;47.348;9.648;2022-10-31T12:53:50;16.20;99.90
18073;DHT22;9161;47.348;9.648;2022-10-31T12:58:40;16.60;99.90
18073;DHT22;9161;47.348;9.648;2022-10-31T13:03:28;17.90;99.90
18073;DHT22;9161;47.348;9.648;2022-10-31T13:08:20;19.90;99.90
18073;DHT22;9161;47.348;9.648;2022-10-31T13:13:07;20.50;99.90
18073;DHT22;9161;47.348;9.648;2022-10-31T13:17:57;20.70;99.90
18073;DHT22;9161;47.348;9.648;2022-10-31T13:22:45;22.20;99.90
18073;DHT22;9161;47.348;9.648;2022-10-31T13:27:39;22.40;99.90
18073;DHT22;9161;47.348;9.648;2022-10-31T13:32:27;23.80;99.90
18073;DHT22;9161;47.348;9.648;2022-10-31T13:37:18;24.00;99.90
18073;DHT22;9161;47.348;9.648;2022-10-31T13:42:12;24.30;99.90
18073;DHT22;9161;47.348;9.648;2022-10-31T13:46:59;24.20;99.90
18073;DHT22;9161;47.348;9.648;2022-10-31T13:51:42;23.80;99.90
18073;DHT22;9161;47.348;9.648;2022-10-31T13:56:28;25.00;99.90
18073;DHT22;9161;47.348;9.648;2022-10-31T14:01:16;25.50;99.90
18073;DHT22;9161;47.348;9.648;2022-10-31T14:06:03;24.80;99.90
18073;DHT22;9161;47.348;9.648;2022-10-31T14:10:49;25.90;99.90
18073;DHT22;9161;47.348;9.648;2022-10-31T14:15:33;24.50;99.90
18073;DHT22;9161;47.348;9.648;2022-10-31T14:20:31;24.80;99.90
18073;DHT22;9161;47.348;9.648;2022-10-31T14:25:31;24.40;99.90
18073;DHT22;9161;47.348;9.648;2022-10-31T14:30:18;23.80;99.90
18073;DHT22;9161;47.348;9.648;2022-10-31T14:35:03;23.60;99.90
18073;DHT22;9161;47.348;9.648;2022-10-31T14:40:00;23.00;99.90
18073;DHT22;9161;47.348;9.648;2022-10-31T14:45:05;22.30;99.90
18073;DHT22;9161;47.348;9.648;2022-10-31T14:50:21;21.70;99.90
18073;DHT22;9161;47.348;9.648;2022-10-31T14:55:11;19.10;99.90
18073;DHT22;9161;47.348;9.648;2022-10-31T15:00:01;17.60;99.90
18073;DHT22;9161;47.348;9.648;2022-10-31T15:04:46;16.60;99.90
18073;DHT22;9161;47.348;9.648;2022-10-31T15:09:32;16.30;99.90
18073;DHT22;9161;47.348;9.648;2022-10-31T15:14:25;15.80;99.90
18073;DHT22;9161;47.348;9.648;2022-10-31T15:19:14;15.60;99.90
18073;DHT22;9161;47.348;9.648;2022-10-31T15:24:01;15.00;99.90
18073;DHT22;9161;47.348;9.648;2022-10-31T15:28:46;14.60;99.90
18073;DHT22;9161;47.348;9.648;2022-10-31T15:33:41;14.30;99.90
18073;DHT22;9161;47.348;9.648;2022-10-31T15:38:30;14.20;99.90
18073;DHT22;9161;47.348;9.648;2022-10-31T15:43:16;13.70;99.90
18073;DHT22;9161;47.348;9.648;2022-10-31T15:48:01;13.50;99.90
18073;DHT22;9161;47.348;9.648;2022-10-31T15:52:47;13.20;99.90
18073;DHT22;9161;47.348;9.648;2022-10-31T15:57:33;12.90;99.90
18073;DHT22;9161;47.348;9.648;2022-10-31T16:02:20;12.70;99.90
18073;DHT22;9161;47.348;9.648;2022-10-31T16:07:13;12.50;99.90
18073;DHT22;9161;47.348;9.648;2022-10-31T16:12:04;12.50;99.90
18073;DHT22;9161;47.348;9.648;2022-10-31T16:16:50;12.30;99.90
18073;DHT22;9161;47.348;9.648;2022-10-31T16:21:37;12.00;99.90
18073;DHT22;9161;47.348;9.648;2022-10-31T16:26:21;11.90;99.90
18073;DHT22;9161;47.348;9.648;2022-10-31T16:31:13;11.60;99.90
18073;DHT22;9161;47.348;9.648;2022-10-31T16:35:59;11.40;99.90
18073;DHT22;9161;47.348;9.648;2022-10-31T16:41:04;11.30;99.90
18073;DHT22;9161;47.348;9.648;2022-10-31T16:45:50;11.20;99.90
18073;DHT22;9161;47.348;9.648;2022-10-31T16:50:33;10.90;99.90
18073;DHT22;9161;47.348;9.648;2022-10-31T16:55:19;10.80;99.90
18073;DHT22;9161;47.348;9.648;2022-10-31T17:00:04;10.80;99.90
18073;DHT22;9161;47.348;9.648;2022-10-31T17:04:48;10.70;99.90
18073;DHT22;9161;47.348;9.648;2022-10-31T17:09:37;10.70;99.90
18073;DHT22;9161;47.348;9.648;2022-10-31T17:14:22;10.60;99.90
18073;DHT22;9161;47.348;9.648;2022-10-31T17:19:09;10.70;99.90
18073;DHT22;9161;47.348;9.648;2022-10-31T17:23:53;10.50;99.90
18073;DHT22;9161;47.348;9.648;2022-10-31T17:28:36;10.50;99.90
18073;DHT22;9161;47.348;9.648;2022-10-31T17:33:22;10.30;99.90
18073;DHT22;9161;47.348;9.648;2022-10-31T17:38:06;10.20;99.90
18073;DHT22;9161;47.348;9.648;2022-10-31T17:42:50;10.20;99.90
18073;DHT22;9161;47.348;9.648;2022-10-31T17:47:35;10.00;99.90
18073;DHT22;9161;47.348;9.648;2022-10-31T17:52:21;9.90;99.90
18073;DHT22;9161;47.348;9.648;2022-10-31T17:57:05;10.00;99.90
18073;DHT22;9161;47.348;9.648;2022-10-31T18:01:49;10.10;99.90
18073;DHT22;9161;47.348;9.648;2022-10-31T18:06:34;10.00;99.90
18073;DHT22;9161;47.348;9.648;2022-10-31T18:11:20;9.90;99.90
18073;DHT22;9161;47.348;9.648;2022-10-31T18:16:07;9.90;99.90
18073;DHT22;9161;47.348;9.648;2022-10-31T18:20:51;9.80;99.90
18073;DHT22;9161;47.348;9.648;2022-10-31T18:25:39;9.70;99.90
18073;DHT22;9161;47.348;9.648;2022-10-31T18:30:26;9.80;99.90
18073;DHT22;9161;47.348;9.648;2022-10-31T18:35:09;9.80;99.90
18073;DHT22;9161;47.348;9.648;2022-10-31T18:39:54;9.80;99.90
18073;DHT22;9161;47.348;9.648;2022-10-31T18:44:38;9.70;99.90
18073;DHT22;9161;47.348;9.648;2022-10-31T18:49:23;9.60;99.90
18073;DHT22;9161;47.348;9.648;2022-10-31T18:54:07;9.60;99.90
18073;DHT22;9161;47.348;9.648;2022-10-31T18:58:51;9.60;99.90
18073;DHT22;9161;47.348;9.648;2022-10-31T19:03:36;9.40;99.90
18073;DHT22;9161;47.348;9.648;2022-10-31T19:08:22;9.50;99.90
18073;DHT22;9161;47.348;9.648;2022-10-31T19:13:07;9.50;99.90
18073;DHT22;9161;47.348;9.648;2022-10-31T19:17:57;9.50;99.90
18073;DHT22;9161;47.348;9.648;2022-10-31T19:22:42;9.40;99.90
18073;DHT22;9161;47.348;9.648;2022-10-31T19:27:38;9.40;99.90
18073;DHT22;9161;47.348;9.648;2022-10-31T19:32:22;9.50;99.90
18073;DHT22;9161;47.348;9.648;2022-10-31T19:37:07;9.40;99.90
18073;DHT22;9161;47.348;9.648;2022-10-31T19:41:52;9.40;99.90
18073;DHT22;9161;47.348;9.648;2022-10-31T19:46:37;9.30;99.90
18073;DHT22;9161;47.348;9.648;2022-10-31T19:51:34;9.40;99.90
18073;DHT22;9161;47.348;9.648;2022-10-31T19:56:23;9.30;99.90
18073;DHT22;9161;47.348;9.648;2022-10-31T20:01:13;9.30;99.90
18073;DHT22;9161;47.348;9.648;2022-10-31T20:06:01;9.30;99.90
18073;DHT22;9161;47.348;9.648;2022-10-31T20:10:53;9.30;99.90
18073;DHT22;9161;47.348;9.648;2022-10-31T20:15:38;9.20;99.90
18073;DHT22;9161;47.348;9.648;2022-10-31T20:20:23;9.30;99.90
18073;DHT22;9161;47.348;9.648;2022-10-31T20:25:10;9.30;99.90
18073;DHT22;9161;47.348;9.648;2022-10-31T20:29:54;9.50;99.90
18073;DHT22;9161;47.348;9.648;2022-10-31T20:34:38;9.40;99.90
18073;DHT22;9161;47.348;9.648;2022-10-31T20:39:23;9.30;99.90
18073;DHT22;9161;47.348;9.648;2022-10-31T20:44:09;9.40;99.90
18073;DHT22;9161;47.348;9.648;2022-10-31T20:48:54;9.60;99.90
18073;DHT22;9161;47.348;9.648;2022-10-31T20:53:38;9.90;99.90
18073;DHT22;9161;47.348;9.648;2022-10-31T20:58:22;10.00;99.90
18073;DHT22;9161;47.348;9.648;2022-10-31T21:03:08;10.10;99.90
18073;DHT22;9161;47.348;9.648;2022-10-31T21:07:52;10.10;99.90
18073;DHT22;9161;47.348;9.648;2022-10-31T21:12:39;10.00;99.90
18073;DHT22;9161;47.348;9.648;2022-10-31T21:17:23;10.00;99.90
18073;DHT22;9161;47.348;9.648;2022-10-31T21:22:10;9.90;99.90
18073;DHT22;9161;47.348;9.648;2022-10-31T21:26:54;9.90;99.90
18073;DHT22;9161;47.348;9.648;2022-10-31T21:31:39;10.00;99.90
18073;DHT22;9161;47.348;9.648;2022-10-31T21:36:23;9.90;99.90
18073;DHT22;9161;47.348;9.648;2022-10-31T21:41:12;9.80;99.90
18073;DHT22;9161;47.348;9.648;2022-10-31T21:46:01;9.80;99.90
18073;DHT22;9161;47.348;9.648;2022-10-31T21:50:45;9.70;99.90
18073;DHT22;9161;47.348;9.648;2022-10-31T21:55:31;9.60;99.90
18073;DHT22;9161;47.348;9.648;2022-10-31T22:00:17;9.60;99.90
18073;DHT22;9161;47.348;9.648;2022-10-31T22:05:00;9.40;99.90
18073;DHT22;9161;47.348;9.648;2022-10-31T22:09:44;9.40;99.90
18073;DHT22;9161;47.348;9.648;2022-10-31T22:14:28;9.50;99.90
18073;DHT22;9161;47.348;9.648;2022-10-31T22:19:14;9.50;99.90
18073;DHT22;9161;47.348;9.648;2022-10-31T22:23:58;9.60;99.90
18073;DHT22;9161;47.348;9.648;2022-10-31T22:28:47;9.60;99.90
18073;DHT22;9161;47.348;9.648;2022-10-31T22:33:31;9.60;99.90
18073;DHT22;9161;47.348;9.648;2022-10-31T22:38:16;9.50;99.90
18073;DHT22;9161;47.348;9.648;2022-10-31T22:42:59;9.30;99.90
18073;DHT22;9161;47.348;9.648;2022-10-31T22:47:44;9.30;99.90
18073;DHT22;9161;47.348;9.648;2022-10-31T22:52:27;9.30;99.90
18073;DHT22;9161;47.348;9.648;2022-10-31T22:57:12;9.30;99.90
18073;DHT22;9161;47.348;9.648;2022-10-31T23:01:56;9.40;99.90
18073;DHT22;9161;47.348;9.648;2022-10-31T23:06:40;9.50;99.90
18073;DHT22;9161;47.348;9.648;2022-10-31T23:11:25;9.60;99.90
18073;DHT22;9161;47.348;9.648;2022-10-31T23:16:11;9.70;99.90
18073;DHT22;9161;47.348;9.648;2022-10-31T23:20:55;9.70;99.90
18073;DHT22;9161;47.348;9.648;2022-10-31T23:25:38;9.80;99.90
18073;DHT22;9161;47.348;9.648;2022-10-31T23:30:39;9.80;99.90
18073;DHT22;9161;47.348;9.648;2022-10-31T23:35:24;9.90;99.90
18073;DHT22;9161;47.348;9.648;2022-10-31T23:40:09;9.90;99.90
18073;DHT22;9161;47.348;9.648;2022-10-31T23:44:52;9.90;99.90
18073;DHT22;9161;47.348;9.648;2022-10-31T23:49:36;9.70;99.90
18073;DHT22;9161;47.348;9.648;2022-10-31T23:54:21;9.70;99.90
18073;DHT22;9161;47.348;9.648;2022-10-31T23:59:05;9.60;99.90
